Time;durP1;ratioP1;P1;durP2;ratioP2;P2;SDS_P1;SDS_P2;PMS_P1;PMS_P2;Temp;Humidity;BMP_temperature;BMP_pressure;BME280_temperature;BME280_humidity;BME280_pressure;Samples;Min_cycle;Max_cycle;Signal;HPM_P1;HPM_P2
2022/10/18 00:02:18;;;;;;;9.30;6.72;;;;;15.20;101986.00;;;;10482176;28;20853;-74
2022/10/18 00:07:20;;;;;;;10.07;6.15;;;;;15.20;101978.00;;;;10457044;28;20702;-74
2022/10/18 00:12:21;;;;;;;11.20;6.40;;;;;15.20;101978.00;;;;10470656;28;20213;-74
2022/10/18 00:17:22;;;;;;;6.50;5.82;;;;;15.10;101992.00;;;;10485152;28;20660;-74
2022/10/18 00:22:24;;;;;;;8.88;6.43;;;;;15.10;101995.00;;;;10478223;28;20205;-74
2022/10/18 00:27:28;;;;;;;12.50;6.85;;;;;15.00;101995.00;;;;10483929;28;20213;-74
2022/10/18 00:32:29;;;;;;;8.75;6.70;;;;;15.10;102000.00;;;;10485367;28;20602;-74
2022/10/18 00:37:32;;;;;;;10.15;6.82;;;;;15.10;101983.00;;;;10480747;28;20544;-74
2022/10/18 00:42:35;;;;;;;10.63;6.78;;;;;15.00;101995.00;;;;10485449;28;20190;-74
2022/10/18 00:47:36;;;;;;;7.55;6.68;;;;;15.00;101996.00;;;;10485740;28;20194;-74
2022/10/18 00:52:42;;;;;;;9.25;6.68;;;;;15.00;102012.00;;;;10490347;28;20255;-74
2022/10/18 00:57:45;;;;;;;7.65;6.85;;;;;15.00;102003.00;;;;10472754;28;20197;-74
2022/10/18 01:02:47;;;;;;;15.05;7.32;;;;;15.00;102003.00;;;;10483695;28;20247;-74
2022/10/18 01:08:00;;;;;;;10.40;7.60;;;;;15.00;101982.00;;;;10459386;28;20687;-74
2022/10/18 01:13:01;;;;;;;9.82;7.35;;;;;15.00;101987.00;;;;10482298;28;20228;-74
2022/10/18 01:18:28;;;;;;;10.35;7.75;;;;;14.90;101986.00;;;;10477626;28;20832;-74
2022/10/18 01:23:48;;;;;;;11.27;7.65;;;;;14.90;101997.00;;;;10482773;28;20193;-74
2022/10/18 01:28:55;;;;;;;12.25;8.48;;;;;14.90;101997.00;;;;10489943;28;20201;-74
2022/10/18 01:34:00;;;;;;;12.07;8.43;;;;;14.90;101992.00;;;;10479086;28;20233;-74
2022/10/18 01:39:06;;;;;;;13.40;8.25;;;;;14.90;101993.00;;;;10449565;28;20637;-74
2022/10/18 01:44:13;;;;;;;10.23;7.90;;;;;14.80;102001.00;;;;10471208;28;20699;-74
2022/10/18 01:49:15;;;;;;;11.80;7.85;;;;;14.80;102002.00;;;;10479436;28;20204;-73
2022/10/18 01:54:21;;;;;;;11.40;8.15;;;;;14.70;102001.00;;;;10470946;28;20216;-74
2022/10/18 01:59:51;;;;;;;11.40;8.18;;;;;14.80;102005.00;;;;10467947;28;20204;-74
2022/10/18 02:05:11;;;;;;;8.95;7.57;;;;;14.80;102002.00;;;;10462473;28;20692;-74
2022/10/18 02:10:19;;;;;;;10.65;7.78;;;;;14.70;102009.00;;;;10470057;28;20251;-74
2022/10/18 02:15:24;;;;;;;10.20;7.43;;;;;14.70;101998.00;;;;10449027;28;20315;-74
2022/10/18 02:20:27;;;;;;;8.68;7.47;;;;;14.70;102003.00;;;;10472736;28;20852;-74
2022/10/18 02:25:31;;;;;;;8.35;6.75;;;;;14.70;101999.00;;;;10494956;28;20205;-74
2022/10/18 02:30:43;;;;;;;8.88;7.55;;;;;14.70;101998.00;;;;10466954;28;20225;-74
2022/10/18 02:35:48;;;;;;;9.02;6.78;;;;;14.70;101994.00;;;;10488118;28;20205;-74
2022/10/18 02:40:50;;;;;;;10.75;7.80;;;;;14.60;102001.00;;;;10464061;28;20212;-74
2022/10/18 02:45:51;;;;;;;10.10;7.40;;;;;14.60;102007.00;;;;10492547;28;20639;-74
2022/10/18 02:50:52;;;;;;;14.13;8.20;;;;;14.60;102014.00;;;;10453995;28;20225;-74
2022/10/18 02:55:53;;;;;;;12.82;8.63;;;;;14.60;102015.00;;;;10476039;28;20687;-74
2022/10/18 03:00:55;;;;;;;11.45;8.35;;;;;14.70;102029.00;;;;10481166;28;20218;-75
2022/10/18 03:05:56;;;;;;;12.23;8.98;;;;;14.70;102022.00;;;;10485318;28;20300;-74
2022/10/18 03:10:57;;;;;;;10.40;8.38;;;;;14.70;102024.00;;;;10486599;28;20228;-74
2022/10/18 03:15:59;;;;;;;12.45;8.82;;;;;14.70;102019.00;;;;10416861;28;20786;-74
2022/10/18 03:21:04;;;;;;;13.30;9.70;;;;;14.80;102022.00;;;;10450664;28;20193;-74
2022/10/18 03:26:05;;;;;;;14.07;9.57;;;;;14.80;102021.00;;;;10500415;28;20193;-74
2022/10/18 03:31:06;;;;;;;11.07;8.95;;;;;14.80;102016.00;;;;10453180;28;20220;-74
2022/10/18 03:36:08;;;;;;;21.08;10.32;;;;;14.80;102023.00;;;;10454544;28;20209;-73
2022/10/18 03:41:09;;;;;;;15.15;10.07;;;;;14.80;102034.00;;;;10508225;28;20235;-74
2022/10/18 03:46:10;;;;;;;16.77;11.38;;;;;14.80;102042.00;;;;10468042;28;20787;-74
2022/10/18 03:51:11;;;;;;;15.05;10.52;;;;;14.80;102041.00;;;;10495157;28;20249;-74
2022/10/18 03:56:13;;;;;;;16.33;9.98;;;;;14.80;102035.00;;;;10481085;28;20206;-73
2022/10/18 04:01:14;;;;;;;15.82;11.55;;;;;14.80;102041.00;;;;10478692;28;20882;-74
2022/10/18 04:06:15;;;;;;;18.65;11.15;;;;;14.80;102041.00;;;;10457581;28;20209;-74
2022/10/18 04:11:16;;;;;;;14.95;11.10;;;;;14.80;102053.00;;;;10452459;28;20210;-74
2022/10/18 04:16:18;;;;;;;17.23;10.82;;;;;14.80;102054.00;;;;10476092;28;20204;-74
2022/10/18 04:21:19;;;;;;;17.20;10.93;;;;;14.80;102056.00;;;;10455601;28;20210;-74
2022/10/18 04:26:20;;;;;;;16.65;11.60;;;;;14.80;102046.00;;;;10449931;28;20848;-74
2022/10/18 04:31:21;;;;;;;18.65;11.40;;;;;14.80;102050.00;;;;10436034;28;20218;-74
2022/10/18 04:36:22;;;;;;;17.65;11.93;;;;;14.80;102055.00;;;;10471878;28;20227;-74
2022/10/18 04:41:23;;;;;;;17.98;11.88;;;;;14.80;102057.00;;;;10481642;28;20201;-74
2022/10/18 04:46:24;;;;;;;17.90;11.75;;;;;14.80;102063.00;;;;10481771;28;20201;-74
2022/10/18 04:51:29;;;;;;;17.70;13.18;;;;;14.70;102072.00;;;;10495711;28;20245;-74
2022/10/18 04:56:30;;;;;;;22.38;12.68;;;;;14.80;102073.00;;;;10483933;28;20246;-74
2022/10/18 05:01:31;;;;;;;32.72;14.50;;;;;14.80;102075.00;;;;10485745;28;20288;-73
2022/10/18 05:06:32;;;;;;;18.58;12.98;;;;;14.80;102074.00;;;;10466220;28;20245;-73
2022/10/18 05:11:33;;;;;;;17.23;12.35;;;;;14.80;102084.00;;;;10472162;28;20221;-73
2022/10/18 05:16:35;;;;;;;19.88;13.10;;;;;14.80;102072.00;;;;10460878;28;20197;-74
2022/10/18 05:21:36;;;;;;;20.00;13.63;;;;;14.80;102076.00;;;;10451193;28;20200;-74
2022/10/18 05:26:38;;;;;;;20.63;12.98;;;;;14.80;102079.00;;;;10442013;28;20210;-74
2022/10/18 05:31:39;;;;;;;20.13;12.57;;;;;14.70;102071.00;;;;10484934;28;20753;-74
2022/10/18 05:36:40;;;;;;;21.58;13.13;;;;;14.70;102069.00;;;;10456242;28;20209;-74
2022/10/18 05:41:41;;;;;;;18.15;12.48;;;;;14.60;102056.00;;;;10496131;28;20197;-73
2022/10/18 05:46:42;;;;;;;27.25;13.00;;;;;14.50;102046.00;;;;10481494;28;20201;-73
2022/10/18 05:51:44;;;;;;;20.23;13.52;;;;;14.50;102046.00;;;;10482198;28;20958;-74
2022/10/18 05:56:45;;;;;;;21.40;12.43;;;;;14.40;102054.00;;;;10456976;28;20813;-74
2022/10/18 06:01:46;;;;;;;23.67;13.70;;;;;14.40;102057.00;;;;10457775;28;20232;-73
2022/10/18 06:06:47;;;;;;;19.65;12.88;;;;;14.30;102067.00;;;;10483565;28;20228;-74
2022/10/18 06:11:48;;;;;;;20.20;12.95;;;;;14.30;102074.00;;;;10498664;28;20221;-74
2022/10/18 06:16:49;;;;;;;21.63;13.27;;;;;14.30;102081.00;;;;10492245;28;20243;-73
2022/10/18 06:21:51;;;;;;;21.48;13.75;;;;;14.20;102086.00;;;;10459851;28;20205;-73
2022/10/18 06:26:52;;;;;;;19.20;13.30;;;;;14.20;102087.00;;;;10470039;28;20197;-73
2022/10/18 06:31:53;;;;;;;20.67;12.63;;;;;14.20;102083.00;;;;10454178;28;20301;-73
2022/10/18 06:36:54;;;;;;;20.45;13.52;;;;;14.20;102091.00;;;;10476157;28;20197;-74
2022/10/18 06:41:58;;;;;;;23.33;12.93;;;;;14.30;102100.00;;;;10451218;28;20230;-74
2022/10/18 06:47:00;;;;;;;23.37;13.57;;;;;14.40;102106.00;;;;10473780;28;20313;-74
2022/10/18 06:52:01;;;;;;;27.13;14.32;;;;;14.40;102107.00;;;;10467223;28;20205;-73
2022/10/18 06:57:02;;;;;;;20.75;13.32;;;;;14.40;102107.00;;;;10477874;28;20197;-74
2022/10/18 07:02:04;;;;;;;21.27;13.65;;;;;14.40;102115.00;;;;10454806;28;20300;-73
2022/10/18 07:07:05;;;;;;;22.65;13.48;;;;;14.40;102131.00;;;;10482328;28;20265;-73
2022/10/18 07:12:06;;;;;;;23.25;12.63;;;;;14.40;102139.00;;;;10484915;28;20211;-73
2022/10/18 07:17:07;;;;;;;24.02;14.32;;;;;14.40;102140.00;;;;10458125;28;20197;-73
2022/10/18 07:22:08;;;;;;;23.38;14.25;;;;;14.40;102143.00;;;;10456544;28;20258;-73
2022/10/18 07:27:09;;;;;;;24.40;13.65;;;;;14.50;102148.00;;;;10442759;28;20254;-73
2022/10/18 07:32:10;;;;;;;23.02;12.95;;;;;14.50;102143.00;;;;10470698;28;20274;-74
2022/10/18 07:37:12;;;;;;;22.42;12.20;;;;;14.50;102161.00;;;;10489738;28;20830;-74
2022/10/18 07:42:13;;;;;;;21.95;13.15;;;;;14.60;102163.00;;;;10467211;28;20240;-74
2022/10/18 07:47:14;;;;;;;21.90;11.43;;;;;14.90;102166.00;;;;10475141;28;20286;-74
2022/10/18 07:52:15;;;;;;;27.05;12.40;;;;;15.20;102174.00;;;;10466697;28;20236;-74
2022/10/18 07:57:16;;;;;;;26.65;13.75;;;;;15.40;102175.00;;;;10453078;28;20208;-74
2022/10/18 08:02:18;;;;;;;25.25;14.02;;;;;15.70;102187.00;;;;10464942;28;20197;-74
2022/10/18 08:07:19;;;;;;;23.73;12.30;;;;;16.00;102188.00;;;;10482617;28;20685;-74
2022/10/18 08:12:22;;;;;;;20.75;9.57;;;;;16.40;102194.00;;;;10488524;28;20220;-74
2022/10/18 08:17:23;;;;;;;20.48;10.10;;;;;17.00;102204.00;;;;10499000;28;20193;-74
2022/10/18 08:22:24;;;;;;;22.55;10.60;;;;;17.50;102210.00;;;;10473708;28;20202;-74
2022/10/18 08:27:25;;;;;;;13.82;7.63;;;;;17.90;102206.00;;;;10486690;28;20228;-74
2022/10/18 08:32:27;;;;;;;10.48;5.53;;;;;18.20;102226.00;;;;10475999;28;20213;-74
2022/10/18 08:37:28;;;;;;;13.43;4.65;;;;;18.40;102217.00;;;;10471121;28;20198;-74
2022/10/18 08:42:56;;;;;;;10.20;4.25;;;;;18.50;102226.00;;;;10464177;28;20198;-73
2022/10/18 08:47:57;;;;;;;13.90;3.50;;;;;18.70;102232.00;;;;10478044;28;20185;-73
2022/10/18 08:53:44;;;;;;;11.93;3.67;;;;;18.90;102228.00;;;;10477210;28;20247;-74
2022/10/18 08:58:45;;;;;;;14.00;3.67;;;;;19.10;102245.00;;;;10313081;28;20992;-74
2022/10/18 09:04:01;;;;;;;8.73;2.95;;;;;19.10;102251.00;;;;10425806;28;20714;-74
2022/10/18 09:09:27;;;;;;;14.82;3.60;;;;;19.00;102257.00;;;;10470424;28;20231;-74
2022/10/18 09:14:56;;;;;;;13.15;3.47;;;;;19.30;102261.00;;;;10474876;28;20226;-74
2022/10/18 09:20:25;;;;;;;18.98;4.82;;;;;19.50;102249.00;;;;10501204;28;20292;-74
2022/10/18 09:25:57;;;;;;;12.85;4.55;;;;;19.70;102264.00;;;;10447711;28;20546;-74
2022/10/18 09:31:41;;;;;;;12.43;4.82;;;;;19.60;102260.00;;;;10467948;28;20210;-74
2022/10/18 09:36:44;;;;;;;12.52;4.43;;;;;19.60;102261.00;;;;10468306;28;20714;-74
2022/10/18 09:42:02;;;;;;;14.77;5.20;;;;;20.00;102277.00;;;;10472405;28;20884;-74
2022/10/18 09:47:17;;;;;;;10.18;4.28;;;;;20.20;102272.00;;;;10489173;28;20200;-74
2022/10/18 09:52:24;;;;;;;10.35;4.57;;;;;20.70;102288.00;;;;10503325;28;20257;-74
2022/10/18 09:57:28;;;;;;;16.95;4.25;;;;;20.70;102291.00;;;;10476336;28;20669;-74
2022/10/18 10:02:29;;;;;;;15.30;5.55;;;;;21.00;102303.00;;;;10471403;28;20210;-74
2022/10/18 10:07:40;;;;;;;12.50;4.15;;;;;21.20;102295.00;;;;10490078;28;20225;-74
2022/10/18 10:12:43;;;;;;;12.13;3.95;;;;;21.20;102303.00;;;;10470380;28;20234;-74
2022/10/18 10:18:06;;;;;;;16.00;4.28;;;;;21.40;102310.00;;;;10482179;28;20209;-74
2022/10/18 10:23:42;;;;;;;11.05;3.72;;;;;20.30;102300.00;;;;10469748;28;20226;-74
2022/10/18 10:28:47;;;;;;;7.93;3.30;;;;;20.80;102290.00;;;;10443525;28;20296;-74
2022/10/18 10:33:58;;;;;;;14.93;3.85;;;;;20.60;102288.00;;;;10454781;28;20271;-74
2022/10/18 10:39:17;;;;;;;11.18;3.60;;;;;19.90;102284.00;;;;10452436;28;20594;-73
2022/10/18 10:44:21;;;;;;;12.38;3.30;;;;;20.80;102290.00;;;;10459093;28;20733;-74
2022/10/18 10:49:28;;;;;;;10.18;3.30;;;;;21.20;102306.00;;;;10468438;28;20201;-74
2022/10/18 10:54:44;;;;;;;10.95;2.78;;;;;19.70;102307.00;;;;10470595;28;20221;-74
2022/10/18 10:59:54;;;;;;;12.63;2.80;;;;;19.40;102291.00;;;;10496135;28;20198;-74
2022/10/18 11:05:13;;;;;;;13.75;2.75;;;;;20.30;102301.00;;;;10466829;28;20225;-74
2022/10/18 11:10:20;;;;;;;11.38;2.17;;;;;21.00;102317.00;;;;10477276;28;20240;-74
2022/10/18 11:15:46;;;;;;;8.70;2.50;;;;;21.40;102322.00;;;;10477238;28;20854;-74
2022/10/18 11:21:12;;;;;;;15.40;3.05;;;;;21.70;102332.00;;;;10460912;28;20205;-74
2022/10/18 11:26:28;;;;;;;14.32;2.92;;;;;21.80;102336.00;;;;10442633;28;20205;-75
2022/10/18 11:31:51;;;;;;;15.05;2.33;;;;;21.90;102322.00;;;;10462354;28;20810;-74
2022/10/18 11:37:09;;;;;;;7.75;2.42;;;;;21.90;102309.00;;;;10480867;28;20663;-74
2022/10/18 11:42:41;;;;;;;8.98;2.28;;;;;22.10;102292.00;;;;10451342;28;20208;-74
2022/10/18 11:47:53;;;;;;;8.68;1.95;;;;;22.40;102297.00;;;;10480857;28;20198;-74
2022/10/18 11:53:05;;;;;;;8.07;2.38;;;;;22.60;102289.00;;;;10485089;28;20214;-74
2022/10/18 11:58:59;;;;;;;8.95;2.25;;;;;22.80;102291.00;;;;10466092;28;20556;-74
2022/10/18 12:04:16;;;;;;;5.60;2.00;;;;;22.80;102295.00;;;;10491048;28;20654;-74
2022/10/18 12:09:31;;;;;;;8.60;2.30;;;;;22.50;102275.00;;;;10441961;28;20205;-74
2022/10/18 12:14:38;;;;;;;6.22;2.15;;;;;22.90;102268.00;;;;10493560;28;20246;-74
2022/10/18 12:19:41;;;;;;;8.60;2.10;;;;;23.20;102274.00;;;;10466637;28;20205;-75
2022/10/18 12:24:42;;;;;;;14.73;2.03;;;;;23.40;102270.00;;;;10499428;28;20197;-75
2022/10/18 12:29:52;;;;;;;5.63;1.40;;;;;23.50;102268.00;;;;10463656;28;20233;-75
2022/10/18 12:34:58;;;;;;;10.05;2.05;;;;;23.40;102271.00;;;;10466123;28;20263;-75
2022/10/18 12:40:22;;;;;;;7.38;1.30;;;;;23.00;102259.00;;;;10468426;28;20201;-75
2022/10/18 12:45:45;;;;;;;8.40;1.95;;;;;23.00;102269.00;;;;10480672;28;20204;-75
2022/10/18 12:50:57;;;;;;;7.47;1.70;;;;;23.00;102263.00;;;;10502426;28;20208;-74
2022/10/18 12:56:27;;;;;;;7.07;1.60;;;;;23.00;102256.00;;;;10487214;28;20200;-75
2022/10/18 13:01:54;;;;;;;3.80;1.45;;;;;22.80;102254.00;;;;10491058;28;20557;-75
2022/10/18 13:07:04;;;;;;;7.90;1.98;;;;;22.60;102257.00;;;;10479739;28;20805;-74
2022/10/18 13:12:08;;;;;;;9.68;1.83;;;;;22.30;102262.00;;;;10501702;28;20214;-74
2022/10/18 13:17:19;;;;;;;5.82;2.13;;;;;21.80;102246.00;;;;10487962;28;20259;-74
2022/10/18 13:22:51;;;;;;;8.65;1.73;;;;;21.50;102247.00;;;;10490077;28;20280;-74
2022/10/18 13:28:16;;;;;;;10.75;1.77;;;;;21.40;102247.00;;;;10485963;28;20202;-74
2022/10/18 13:33:31;;;;;;;10.38;2.35;;;;;21.00;102249.00;;;;10490984;28;20220;-73
2022/10/18 13:38:40;;;;;;;5.28;1.48;;;;;20.90;102240.00;;;;10506451;28;20198;-74
2022/10/18 13:44:05;;;;;;;9.95;1.88;;;;;20.70;102248.00;;;;10498169;28;20237;-74
2022/10/18 13:49:16;;;;;;;7.85;1.83;;;;;20.60;102238.00;;;;10501454;28;20559;-74
2022/10/18 13:54:55;;;;;;;7.85;1.90;;;;;20.30;102242.00;;;;10469286;28;20217;-74
2022/10/18 14:00:15;;;;;;;6.60;1.80;;;;;20.20;102238.00;;;;10492311;28;20250;-74
2022/10/18 14:05:26;;;;;;;5.68;1.88;;;;;20.10;102249.00;;;;10455337;28;20233;-73
2022/10/18 14:10:49;;;;;;;5.75;1.95;;;;;20.10;102247.00;;;;10454047;28;20579;-74
2022/10/18 14:16:26;;;;;;;3.70;1.50;;;;;20.00;102244.00;;;;10494063;28;20194;-73
2022/10/18 14:21:33;;;;;;;9.27;2.15;;;;;20.40;102231.00;;;;10475968;28;20255;-74
2022/10/18 14:26:34;;;;;;;9.43;1.90;;;;;20.50;102239.00;;;;10472157;28;20213;-74
2022/10/18 14:31:36;;;;;;;8.30;2.03;;;;;20.10;102243.00;;;;10485835;28;20240;-75
2022/10/18 14:36:44;;;;;;;6.05;1.50;;;;;19.80;102249.00;;;;10493745;28;20190;-74
2022/10/18 14:41:49;;;;;;;3.92;1.80;;;;;19.70;102234.00;;;;10455811;28;20258;-75
2022/10/18 14:46:54;;;;;;;6.63;2.00;;;;;20.10;102228.00;;;;10489838;28;20189;-74
2022/10/18 14:51:58;;;;;;;8.98;2.45;;;;;19.70;102221.00;;;;10484315;28;20216;-74
2022/10/18 14:57:02;;;;;;;7.43;2.33;;;;;19.60;102233.00;;;;10433296;28;20241;-73
2022/10/18 15:02:21;;;;;;;5.10;1.98;;;;;19.30;102229.00;;;;10489716;28;20651;-74
2022/10/18 15:07:24;;;;;;;5.80;1.70;;;;;19.10;102228.00;;;;10448669;28;20209;-73
2022/10/18 15:12:27;;;;;;;4.75;1.33;;;;;18.80;102223.00;;;;10488306;28;20217;-72
2022/10/18 15:17:31;;;;;;;9.93;2.00;;;;;18.60;102227.00;;;;10488339;28;20204;-74
2022/10/18 15:22:32;;;;;;;6.47;1.70;;;;;18.40;102221.00;;;;10490631;28;20567;-74
2022/10/18 15:27:36;;;;;;;6.53;1.55;;;;;18.30;102227.00;;;;10475419;28;20210;-74
2022/10/18 15:32:46;;;;;;;8.75;2.17;;;;;18.10;102221.00;;;;10482857;28;20222;-74
2022/10/18 15:37:48;;;;;;;7.97;2.08;;;;;18.00;102219.00;;;;10481530;28;20202;-73
2022/10/18 15:43:02;;;;;;;5.57;1.70;;;;;17.80;102213.00;;;;10457383;28;20189;-74
2022/10/18 15:48:09;;;;;;;3.10;1.60;;;;;17.80;102219.00;;;;10472819;28;20923;-74
2022/10/18 15:53:32;;;;;;;10.90;2.40;;;;;17.70;102229.00;;;;10448549;28;20213;-74
2022/10/18 15:58:43;;;;;;;5.50;1.77;;;;;17.50;102218.00;;;;10479219;28;20225;-74
2022/10/18 16:03:45;;;;;;;6.82;1.70;;;;;17.40;102213.00;;;;10488087;28;20204;-73
2022/10/18 16:08:52;;;;;;;6.60;1.60;;;;;17.30;102216.00;;;;10449037;28;20297;-74
2022/10/18 16:13:53;;;;;;;7.72;1.90;;;;;17.00;102216.00;;;;10454260;28;20244;-74
2022/10/18 16:19:00;;;;;;;6.03;1.70;;;;;16.80;102219.00;;;;10480436;28;20275;-74
2022/10/18 16:24:02;;;;;;;6.03;2.08;;;;;16.60;102226.00;;;;10468848;28;20205;-73
2022/10/18 16:29:04;;;;;;;9.80;1.83;;;;;16.50;102232.00;;;;10478122;28;20208;-73
2022/10/18 16:34:09;;;;;;;9.65;2.10;;;;;16.30;102230.00;;;;10465369;28;20218;-74
2022/10/18 16:39:16;;;;;;;9.55;2.42;;;;;16.10;102237.00;;;;10483855;28;20193;-74
2022/10/18 16:44:18;;;;;;;11.48;2.10;;;;;15.90;102239.00;;;;10470946;28;20251;-74
2022/10/18 16:49:22;;;;;;;11.35;2.50;;;;;15.80;102248.00;;;;10490434;28;20256;-74
2022/10/18 16:54:24;;;;;;;8.57;2.10;;;;;15.50;102244.00;;;;10474715;28;20225;-74
2022/10/18 16:59:31;;;;;;;8.93;1.90;;;;;15.40;102247.00;;;;10469579;28;20288;-73
2022/10/18 17:04:32;;;;;;;6.63;1.80;;;;;15.20;102245.00;;;;10495448;28;20240;-74
2022/10/18 17:09:35;;;;;;;13.52;2.90;;;;;15.00;102260.00;;;;10485257;28;20664;-74
2022/10/18 17:14:37;;;;;;;12.95;2.45;;;;;14.70;102255.00;;;;10456524;28;20213;-74
2022/10/18 17:19:38;;;;;;;15.37;3.67;;;;;14.50;102247.00;;;;10454996;28;20339;-74
2022/10/18 17:24:40;;;;;;;6.97;3.35;;;;;14.40;102256.00;;;;10438634;28;20201;-74
2022/10/18 17:29:42;;;;;;;10.52;5.03;;;;;14.30;102261.00;;;;10486941;28;20932;-74
2022/10/18 17:34:44;;;;;;;14.75;5.20;;;;;14.10;102272.00;;;;10473273;28;20219;-74
2022/10/18 17:39:45;;;;;;;10.40;4.43;;;;;13.90;102271.00;;;;10465861;28;20194;-74
2022/10/18 17:44:47;;;;;;;9.23;3.33;;;;;13.80;102280.00;;;;10473640;28;20251;-74
2022/10/18 17:49:48;;;;;;;8.70;2.80;;;;;13.70;102270.00;;;;10475512;28;20223;-74
2022/10/18 17:54:50;;;;;;;9.63;2.70;;;;;13.80;102275.00;;;;10465903;28;20217;-74
2022/10/18 17:59:54;;;;;;;7.07;2.47;;;;;13.70;102272.00;;;;10466541;28;20567;-74
2022/10/18 18:04:56;;;;;;;11.67;3.00;;;;;13.70;102264.00;;;;10470640;28;20312;-73
2022/10/18 18:09:58;;;;;;;8.10;2.50;;;;;13.70;102275.00;;;;10481697;28;20202;-73
2022/10/18 18:14:59;;;;;;;9.97;3.87;;;;;13.60;102294.00;;;;10488562;28;20224;-74
2022/10/18 18:20:01;;;;;;;8.57;2.67;;;;;13.50;102285.00;;;;10472948;28;20208;-74
2022/10/18 18:25:03;;;;;;;10.40;2.70;;;;;13.40;102293.00;;;;10472657;28;20667;-74
2022/10/18 18:30:05;;;;;;;10.20;3.20;;;;;13.30;102291.00;;;;10451513;28;20239;-73
2022/10/18 18:35:11;;;;;;;12.53;2.90;;;;;13.30;102290.00;;;;10439928;28;20263;-74
2022/10/18 18:40:12;;;;;;;10.07;3.23;;;;;13.20;102301.00;;;;10473539;28;20197;-74
2022/10/18 18:45:14;;;;;;;5.27;2.60;;;;;13.10;102288.00;;;;10477904;28;20339;-74
2022/10/18 18:50:16;;;;;;;9.50;2.90;;;;;13.00;102295.00;;;;10462764;28;20644;-74
2022/10/18 18:55:17;;;;;;;8.77;2.90;;;;;12.80;102292.00;;;;10461655;28;20221;-74
2022/10/18 19:00:18;;;;;;;7.23;3.43;;;;;12.70;102298.00;;;;10474313;28;20221;-74
2022/10/18 19:05:20;;;;;;;8.50;3.40;;;;;12.60;102298.00;;;;10457508;28;20228;-74
2022/10/18 19:10:22;;;;;;;8.77;3.73;;;;;12.40;102299.00;;;;10489611;28;20259;-74
2022/10/18 19:15:23;;;;;;;8.73;3.67;;;;;12.30;102293.00;;;;10481523;28;20244;-73
2022/10/18 19:20:25;;;;;;;13.80;5.00;;;;;12.10;102284.00;;;;10460032;28;20324;-73
2022/10/18 19:25:26;;;;;;;12.10;4.37;;;;;12.00;102280.00;;;;10427723;28;20197;-74
2022/10/18 19:30:28;;;;;;;9.80;5.13;;;;;12.00;102271.00;;;;10458986;28;20194;-73
2022/10/18 19:35:29;;;;;;;13.37;5.43;;;;;11.90;102280.00;;;;10476739;28;20225;-74
2022/10/18 19:40:30;;;;;;;11.90;4.67;;;;;11.90;102270.00;;;;10453127;28;20209;-73
2022/10/18 19:45:32;;;;;;;7.37;4.03;;;;;11.80;102270.00;;;;10473163;28;20832;-74
2022/10/18 19:50:34;;;;;;;18.00;4.50;;;;;11.80;102277.00;;;;10454394;28;20194;-73
2022/10/18 19:55:35;;;;;;;9.97;4.43;;;;;11.70;102278.00;;;;10472291;28;20254;-73
2022/10/18 20:00:37;;;;;;;9.40;4.43;;;;;11.60;102275.00;;;;10471547;28;20255;-74
2022/10/18 20:05:38;;;;;;;8.53;4.00;;;;;11.50;102280.00;;;;10489227;28;20231;-73
2022/10/18 20:10:39;;;;;;;12.73;4.50;;;;;11.40;102285.00;;;;10468012;28;20865;-74
2022/10/18 20:15:41;;;;;;;11.50;4.07;;;;;11.40;102295.00;;;;10485795;28;20221;-73
2022/10/18 20:20:43;;;;;;;14.13;4.73;;;;;11.30;102293.00;;;;10439682;28;20202;-73
2022/10/18 20:26:00;;;;;;;7.63;3.90;;;;;11.20;102294.00;;;;10495952;28;20703;-73
2022/10/18 20:31:07;;;;;;;11.50;4.60;;;;;11.10;102298.00;;;;10486202;28;20197;-73
2022/10/18 20:36:11;;;;;;;10.43;5.37;;;;;11.10;102294.00;;;;10456359;28;20221;-73
2022/10/18 20:41:17;;;;;;;11.37;4.80;;;;;11.00;102292.00;;;;10463127;28;20178;-74
2022/10/18 20:46:19;;;;;;;13.93;5.73;;;;;11.00;102298.00;;;;10452556;28;20575;-73
2022/10/18 20:51:22;;;;;;;8.97;4.53;;;;;10.90;102295.00;;;;10445908;28;20231;-73
2022/10/18 20:56:26;;;;;;;13.70;5.57;;;;;10.90;102294.00;;;;10469169;28;20205;-73
2022/10/18 21:01:29;;;;;;;11.00;5.10;;;;;10.80;102307.00;;;;10441857;28;20534;-73
2022/10/18 21:06:36;;;;;;;14.27;5.73;;;;;10.70;102305.00;;;;10476534;28;20229;-73
2022/10/18 21:11:40;;;;;;;8.90;4.67;;;;;10.60;102299.00;;;;10444577;28;20672;-74
2022/10/18 21:16:42;;;;;;;9.40;5.67;;;;;10.50;102298.00;;;;10453043;28;20228;-73
2022/10/18 21:21:46;;;;;;;12.80;6.50;;;;;10.40;102296.00;;;;10474991;28;20280;-73
2022/10/18 21:26:48;;;;;;;13.37;5.50;;;;;10.30;102293.00;;;;10475968;28;20321;-73
2022/10/18 21:31:54;;;;;;;16.30;5.80;;;;;10.20;102286.00;;;;10467373;28;20244;-74
2022/10/18 21:36:55;;;;;;;11.43;5.50;;;;;10.20;102298.00;;;;10468212;28;20202;-74
2022/10/18 21:41:56;;;;;;;9.23;5.57;;;;;10.10;102299.00;;;;10454851;28;20203;-74
2022/10/18 21:46:57;;;;;;;11.53;6.10;;;;;10.10;102290.00;;;;10475952;28;20208;-74
2022/10/18 21:52:02;;;;;;;12.17;7.17;;;;;10.00;102297.00;;;;10475913;28;20225;-73
2022/10/18 21:57:03;;;;;;;18.27;8.27;;;;;10.00;102298.00;;;;10487421;28;20651;-74
2022/10/18 22:02:04;;;;;;;10.83;6.20;;;;;9.90;102287.00;;;;10474073;28;20208;-74
2022/10/18 22:07:05;;;;;;;7.70;5.60;;;;;9.90;102283.00;;;;10483371;28;20671;-74
2022/10/18 22:12:07;;;;;;;13.17;6.07;;;;;9.80;102276.00;;;;10475373;28;20221;-74
2022/10/18 22:17:11;;;;;;;9.90;5.97;;;;;9.80;102267.00;;;;10459694;28;20198;-74
2022/10/18 22:22:13;;;;;;;11.73;6.37;;;;;9.70;102270.00;;;;10482927;28;20232;-74
2022/10/18 22:27:14;;;;;;;9.57;5.90;;;;;9.60;102256.00;;;;10457675;28;20224;-74
2022/10/18 22:32:15;;;;;;;9.60;6.50;;;;;9.60;102256.00;;;;10480015;28;20213;-74
2022/10/18 22:37:16;;;;;;;11.33;6.97;;;;;9.60;102255.00;;;;10475117;28;20197;-74
2022/10/18 22:42:17;;;;;;;14.43;8.07;;;;;9.70;102254.00;;;;10481160;28;20251;-74
2022/10/18 22:47:18;;;;;;;16.17;7.87;;;;;9.70;102239.00;;;;10495096;28;20196;-74
2022/10/18 22:52:19;;;;;;;15.67;7.57;;;;;9.70;102239.00;;;;10484501;28;20213;-74
2022/10/18 22:57:21;;;;;;;10.47;6.53;;;;;9.70;102231.00;;;;10480425;28;20703;-74
2022/10/18 23:02:22;;;;;;;13.90;7.17;;;;;9.70;102238.00;;;;10459515;28;20202;-74
2022/10/18 23:07:23;;;;;;;12.57;7.60;;;;;9.70;102235.00;;;;10480340;28;20275;-74
2022/10/18 23:12:24;;;;;;;11.73;6.13;;;;;9.70;102241.00;;;;10489062;28;20217;-74
2022/10/18 23:17:25;;;;;;;14.70;6.97;;;;;9.70;102230.00;;;;10476994;28;20197;-74
2022/10/18 23:22:27;;;;;;;14.73;7.60;;;;;9.60;102229.00;;;;10495398;28;20204;-74
2022/10/18 23:27:28;;;;;;;14.30;7.13;;;;;9.60;102226.00;;;;10472359;28;20210;-74
2022/10/18 23:32:29;;;;;;;13.63;6.73;;;;;9.50;102236.00;;;;10461483;28;20308;-74
2022/10/18 23:37:32;;;;;;;11.47;7.23;;;;;9.50;102240.00;;;;10496800;28;20564;-74
2022/10/18 23:42:33;;;;;;;11.83;6.93;;;;;9.40;102244.00;;;;10481746;28;20197;-74
2022/10/18 23:47:34;;;;;;;14.20;7.27;;;;;9.40;102236.00;;;;10452252;28;20204;-74
2022/10/18 23:52:36;;;;;;;11.77;7.13;;;;;9.40;102237.00;;;;10495582;28;20236;-74
2022/10/18 23:57:37;;;;;;;16.60;7.23;;;;;9.30;102225.00;;;;10437649;28;20212;-74
